Share

Skiathos Island, Greece

Skopelos Greece (I697) Elev 259 ft | 39.13 °N, 23.72 °E | Change Station
Active Advisory: Thunderstorms

Current weather conditions updated 6 seconds ago

Partly Cloudy
Partly Cloudy
51.6 °F
Feels Like 51.6 °F
N
0.8
Wind Variable Wind from NNW
Gusts 7.6 mph
Sunrise 6:43 AM
Sunset 8:07 PM
Moon Waning Gibbous

Today is forecast to be Cooler than yesterday.

Pressure 29.68 in
Visibility 6.2 miles
Clouds Few 3000 ft
Dew Point 44 °F
Humidity 74%
Rainfall 0.00 in
Snow Depth Not available.
UV 0.0 out of 16
Pollen Not available.
Air Quality Not available.
Flu Activity Not available.
METAR LGBL 190050Z 26004KT 9999 FEW030 09/02 Q1005 NOSIG

More Conditions Fewer Conditions

Pressure 29.68 in
Visibility 6.2 miles
Clouds Few 3000 ft
Dew Point 44 °F
Humidity 74%
Rainfall 0.00 in
Snow Depth Not available.
UV 0.0 out of 16
Pollen Not available.
Air Quality Not available.
Flu Activity Not available.
METAR LGBL 190050Z 26004KT 9999 FEW030 09/02 Q1005 NOSIG

More Conditions Fewer Conditions

10-Day Weather Forecast

Almanac

Astronomy

Apr. 19, 2014 Rise Set
Actual Time 6:43 AM EEST 8:07 PM EEST
Civil Twilight 6:15 AM EEST 8:35 PM EEST
Nautical Twilight 5:42 AM EEST 9:08 PM EEST
Astronomical Twilight 5:07 AM EEST 9:44 PM EEST
Moon No Moon Rise 9:44 AM EEST
Length of Visible Light 14h 19m
Length of Day
13h 23m
Tomorrow will be 2m 24s longer.
Waning Gibbous, 84% of the Moon is Illuminated
Apr 18
Waning Gibbous
Apr 22
Last Quarter
Apr 29
New
May 6
First Quarter
May 14
Full

Yesterday's Extremes

Country Highs Country Lows

Community

  • Cloudy spring view
    Cloudy spring view
  • Old barn
    Old barn
  • What's for Lunch?
    What's for Lunch?
  • SUNRISE THROUGH THE TREES.
    SUNRISE THROUGH THE TREES.
  • Dog Wood Blossoms
    Dog Wood Blossoms

WunderPhotos

Upload Photos

1,702,570 photos uploaded!

WunderBlogs® & News

Nearby

Snow Depth

Not available.

Coastal Water Temperatures

Place Temperature
No Stations Reporting

Earthquake Activity

City Distance Mag. Time & Date
No recent earthquake activity has been reported nearby.
Minimum magnitude displayed is 2.5.

Nearby Weather Stations

Station Location Temp. Dew Point Humidity Wind Precip. Elev Updated Type
Skopelos Greece, Ελλάδα 51.6 °F 44 °F 74% NNW  at  0.8 mph 0.00 in / hr 259 ft 4:58 AM EEST Rapid Fire
ALONISSOS 54.3 °F 42 °F 64% WSW  at  3.0 mph 0.00 in / hr 125 ft 4:47 AM EEST Normal
Koropi-Milies, Koropi Pelion 53.2 °F 37 °F 54% East  at  0.0 mph 0.00 in / hr 0 ft 4:58 AM EEST Rapid Fire

Show More Stations Show Fewer Stations

What do you think?

We're not finished. Please let us know what you like, what you don't like, and what you are still missing.